createdAt,value
2022-12-23T00:01:27.344Z,5.63
2022-12-23T00:03:59.114Z,5.59
2022-12-23T00:06:28.381Z,5.57
2022-12-23T00:08:58.445Z,5.54
2022-12-23T00:11:29.788Z,5.54
2022-12-23T00:14:21.051Z,5.55
2022-12-23T00:16:51.481Z,5.54
2022-12-23T00:19:20.137Z,5.53
2022-12-23T00:21:49.084Z,5.57
2022-12-23T00:24:17.555Z,5.52
2022-12-23T00:26:47.334Z,5.51
2022-12-23T00:29:15.754Z,5.47
2022-12-23T00:31:44.423Z,5.45
2022-12-23T00:34:13.299Z,5.46
2022-12-23T00:36:41.739Z,5.45
2022-12-23T00:39:30.752Z,5.43
2022-12-23T00:42:17.905Z,5.41
2022-12-23T00:44:46.292Z,5.43
2022-12-23T00:47:36.096Z,5.43
2022-12-23T00:50:03.694Z,5.42
2022-12-23T00:52:32.121Z,5.43
2022-12-23T00:55:00.500Z,5.44
2022-12-23T00:57:30.259Z,5.43
2022-12-23T00:59:58.622Z,5.42
2022-12-23T01:02:44.928Z,5.38
2022-12-23T01:05:30.848Z,5.37
2022-12-23T01:07:59.291Z,5.34
2022-12-23T01:10:27.652Z,5.32
2022-12-23T01:12:57.397Z,5.30
2022-12-23T01:15:25.758Z,5.31
2022-12-23T01:17:54.125Z,5.28
2022-12-23T01:20:22.533Z,5.25
2022-12-23T01:22:50.953Z,5.26
2022-12-23T01:25:19.347Z,5.25
2022-12-23T01:27:47.737Z,5.25
2022-12-23T01:30:17.744Z,5.25
2022-12-23T01:32:46.118Z,5.26
2022-12-23T01:35:14.479Z,5.25
2022-12-23T01:37:43.006Z,5.26
2022-12-23T01:40:12.010Z,5.27
2022-12-23T01:42:45.180Z,5.25
2022-12-23T01:45:18.958Z,5.25
2022-12-23T01:47:54.424Z,5.25
2022-12-23T01:50:27.264Z,5.25
2022-12-23T01:53:07.319Z,5.25
2022-12-23T01:55:41.148Z,5.25
2022-12-23T01:58:13.085Z,5.26
2022-12-23T02:01:01.314Z,5.27
2022-12-23T02:03:43.357Z,5.26
2022-12-23T02:06:33.125Z,5.25
2022-12-23T02:09:19.990Z,5.22
2022-12-23T02:12:24.335Z,5.21
2022-12-23T02:15:46.315Z,5.20
2022-12-23T02:18:36.270Z,5.18
2022-12-23T02:21:31.718Z,5.20
2022-12-23T02:24:29.644Z,5.22
2022-12-23T02:27:14.666Z,5.23
2022-12-23T02:30:06.803Z,5.22
2022-12-23T02:32:46.860Z,5.23
2022-12-23T02:35:24.589Z,5.27
2022-12-23T02:37:56.823Z,5.24
2022-12-23T02:40:35.107Z,5.23
2022-12-23T02:43:09.857Z,5.22
2022-12-23T02:45:44.810Z,5.21
2022-12-23T02:48:21.169Z,5.22
2022-12-23T02:50:52.777Z,5.22
2022-12-23T02:53:26.605Z,5.28
2022-12-23T02:55:57.365Z,5.29
2022-12-23T02:58:30.162Z,5.27
2022-12-23T03:01:00.824Z,5.27
2022-12-23T03:03:31.324Z,5.26
2022-12-23T03:05:59.836Z,5.24
2022-12-23T03:08:31.951Z,5.24
2022-12-23T03:11:05.349Z,5.25
2022-12-23T03:14:06.954Z,5.25
2022-12-23T03:16:49.539Z,5.25
2022-12-23T03:19:25.155Z,5.25
2022-12-23T03:22:01.480Z,5.25
2022-12-23T03:24:40.755Z,5.24
2022-12-23T03:27:15.990Z,5.27
2022-12-23T03:29:51.398Z,5.26
2022-12-23T03:32:22.757Z,5.28
2022-12-23T03:34:55.826Z,5.29
2022-12-23T03:37:26.922Z,5.30
2022-12-23T03:40:00.332Z,5.32
2022-12-23T03:42:33.783Z,5.32
2022-12-23T03:48:03.785Z,5.31
2022-12-23T03:50:36.224Z,5.30
2022-12-23T03:53:11.503Z,5.31
2022-12-23T03:55:44.067Z,5.29
2022-12-23T03:58:20.773Z,5.29
2022-12-23T04:00:55.782Z,5.29
2022-12-23T04:03:33.595Z,5.28
2022-12-23T04:06:07.278Z,5.28
2022-12-23T04:08:38.691Z,5.28
2022-12-23T04:11:07.300Z,5.28
2022-12-23T04:13:35.822Z,5.28
2022-12-23T04:16:04.808Z,5.28
2022-12-23T04:18:33.211Z,5.29
2022-12-23T04:21:02.986Z,5.28
2022-12-23T04:23:31.391Z,5.27
2022-12-23T04:25:59.799Z,5.28
2022-12-23T04:28:28.129Z,5.30
2022-12-23T04:30:56.555Z,5.29
2022-12-23T04:33:24.917Z,5.31
2022-12-23T04:35:53.258Z,5.32
2022-12-23T04:38:23.021Z,5.34
2022-12-23T04:40:51.365Z,5.33
2022-12-23T04:43:19.715Z,5.33
2022-12-23T04:45:51.645Z,5.35
2022-12-23T04:48:20.499Z,5.33
2022-12-23T04:50:48.881Z,5.33
2022-12-23T04:53:17.320Z,5.32
2022-12-23T04:55:51.072Z,5.31
2022-12-23T04:58:22.026Z,5.31
2022-12-23T05:00:50.509Z,5.32
2022-12-23T05:03:19.049Z,5.31
2022-12-23T05:05:47.523Z,5.29
2022-12-23T05:08:15.978Z,5.29
2022-12-23T05:10:47.243Z,5.29
2022-12-23T05:13:15.653Z,5.30
2022-12-23T05:15:45.127Z,5.29
2022-12-23T05:18:13.693Z,5.28
2022-12-23T05:20:42.105Z,5.29
2022-12-23T05:23:10.599Z,5.29
2022-12-23T05:25:39.990Z,5.31
2022-12-23T05:28:10.032Z,5.30
2022-12-23T05:30:38.447Z,5.32
2022-12-23T05:33:06.822Z,5.35
2022-12-23T05:35:35.323Z,5.38
2022-12-23T05:38:04.096Z,5.40
2022-12-23T05:40:33.784Z,5.40
2022-12-23T05:43:02.509Z,5.42
2022-12-23T05:45:32.304Z,5.39
2022-12-23T05:48:00.634Z,5.39
2022-12-23T05:50:29.103Z,5.41
2022-12-23T05:52:57.788Z,5.42
2022-12-23T05:55:26.287Z,5.42
2022-12-23T05:57:54.951Z,5.45
2022-12-23T06:00:23.293Z,5.45
2022-12-23T06:02:54.164Z,5.45
2022-12-23T06:05:23.340Z,5.44
2022-12-23T06:07:51.719Z,5.38
2022-12-23T06:10:20.322Z,5.41
2022-12-23T06:12:48.698Z,5.43
2022-12-23T06:15:17.148Z,5.46
2022-12-23T06:17:45.541Z,5.47
2022-12-23T06:20:20.438Z,5.47
2022-12-23T06:22:49.673Z,5.48
2022-12-23T06:25:18.217Z,5.54
2022-12-23T06:27:46.684Z,5.56
2022-12-23T06:30:15.584Z,5.59
2022-12-23T06:32:44.062Z,5.76
2022-12-23T06:35:12.478Z,5.83
2022-12-23T06:37:42.239Z,5.84
2022-12-23T06:40:11.851Z,5.94
2022-12-23T06:42:40.192Z,6.03
2022-12-23T06:45:09.922Z,5.98
2022-12-23T06:47:38.369Z,6.02
2022-12-23T06:50:07.832Z,6.00
2022-12-23T06:52:36.295Z,6.11
2022-12-23T06:55:07.046Z,6.13
2022-12-23T06:57:35.448Z,6.19
2022-12-23T07:00:05.044Z,6.28
2022-12-23T07:02:33.510Z,6.23
2022-12-23T07:05:02.058Z,6.24
2022-12-23T07:07:32.219Z,6.19
2022-12-23T07:10:00.644Z,6.21
2022-12-23T07:12:30.385Z,6.25
2022-12-23T07:14:58.745Z,6.37
2022-12-23T07:17:27.187Z,6.42
2022-12-23T07:19:55.622Z,6.42
2022-12-23T07:22:24.013Z,6.35
2022-12-23T07:24:52.457Z,6.34
2022-12-23T07:27:20.775Z,6.37
2022-12-23T07:29:50.527Z,6.42
2022-12-23T07:32:18.935Z,6.42
2022-12-23T07:34:47.774Z,6.48
2022-12-23T07:37:16.134Z,6.45
2022-12-23T07:39:44.725Z,6.48
2022-12-23T07:45:02.944Z,6.49
2022-12-23T07:47:31.485Z,6.51
2022-12-23T07:49:59.830Z,6.47
2022-12-23T07:52:29.172Z,6.44
2022-12-23T07:54:57.534Z,6.48
2022-12-23T07:57:25.876Z,6.49
2022-12-23T07:59:54.234Z,6.50
2022-12-23T08:02:25.270Z,6.46
2022-12-23T08:04:54.043Z,6.58
2022-12-23T08:07:22.465Z,6.53
2022-12-23T08:09:50.869Z,6.56
2022-12-23T08:12:19.275Z,6.54
2022-12-23T08:14:48.417Z,6.64
2022-12-23T08:17:16.975Z,6.61
2022-12-23T08:19:46.706Z,6.57
2022-12-23T08:22:15.103Z,6.50
2022-12-23T08:24:43.514Z,6.43
2022-12-23T08:27:11.885Z,6.40
2022-12-23T08:29:40.432Z,6.43
2022-12-23T08:32:09.206Z,6.50
2022-12-23T08:34:38.004Z,6.53
2022-12-23T08:37:07.797Z,6.48
2022-12-23T08:39:36.384Z,6.50
2022-12-23T08:42:05.598Z,6.50
2022-12-23T08:44:34.483Z,6.47
2022-12-23T08:47:02.858Z,6.38
2022-12-23T08:49:31.279Z,6.38
2022-12-23T08:51:59.672Z,6.40
2022-12-23T08:54:29.486Z,6.49
2022-12-23T08:56:57.966Z,6.46
2022-12-23T08:59:26.707Z,6.49
2022-12-23T09:01:55.166Z,6.56
2022-12-23T09:04:23.756Z,6.56
2022-12-23T09:06:52.119Z,6.52
2022-12-23T09:09:20.583Z,6.46
2022-12-23T09:11:50.346Z,6.53
2022-12-23T09:14:18.757Z,6.55
2022-12-23T09:16:47.160Z,6.51
2022-12-23T09:19:15.608Z,6.65
2022-12-23T09:21:43.959Z,6.61
2022-12-23T09:24:12.341Z,6.67
2022-12-23T09:26:40.745Z,6.56
2022-12-23T09:29:10.475Z,6.53
2022-12-23T09:31:38.879Z,6.56
2022-12-23T09:34:07.322Z,6.51
2022-12-23T09:36:35.887Z,6.58
2022-12-23T09:39:04.653Z,6.64
2022-12-23T09:41:48.425Z,6.60
2022-12-23T09:44:34.533Z,6.67
2022-12-23T09:47:05.826Z,6.70
2022-12-23T09:49:35.343Z,6.71
2022-12-23T09:52:07.005Z,6.74
2022-12-23T09:54:42.974Z,6.75
2022-12-23T09:57:22.118Z,6.70
2022-12-23T10:00:06.895Z,6.62
2022-12-23T10:02:47.976Z,6.59
2022-12-23T10:05:25.776Z,6.59
2022-12-23T10:07:59.622Z,6.67
2022-12-23T10:10:35.388Z,6.64
2022-12-23T10:13:07.237Z,6.58
2022-12-23T10:15:40.329Z,6.69
2022-12-23T10:18:21.831Z,6.66
2022-12-23T10:20:54.309Z,6.63
2022-12-23T10:23:33.259Z,6.58
2022-12-23T10:26:04.643Z,6.59
2022-12-23T10:28:32.997Z,6.73
2022-12-23T10:31:30.917Z,6.75
2022-12-23T10:34:03.935Z,6.80
2022-12-23T10:36:41.784Z,6.74
2022-12-23T10:39:20.426Z,6.71
2022-12-23T10:41:56.527Z,6.80
2022-12-23T10:44:53.999Z,6.82
2022-12-23T10:47:36.093Z,6.83
2022-12-23T10:50:22.099Z,6.88
2022-12-23T10:52:52.657Z,6.91
2022-12-23T10:55:32.978Z,6.85
2022-12-23T10:58:07.755Z,6.77
2022-12-23T11:00:40.009Z,6.86
2022-12-23T11:03:18.744Z,6.88
2022-12-23T11:05:50.122Z,6.90
2022-12-23T11:08:18.749Z,6.96
2022-12-23T11:10:47.547Z,7.00
2022-12-23T11:13:25.943Z,6.94
2022-12-23T11:15:54.568Z,7.01
2022-12-23T11:18:24.302Z,7.04
2022-12-23T11:21:04.557Z,6.98
2022-12-23T11:23:35.830Z,6.95
2022-12-23T11:26:08.345Z,6.91
2022-12-23T11:28:39.763Z,6.95
2022-12-23T11:31:12.306Z,6.99
2022-12-23T11:33:49.998Z,6.92
2022-12-23T11:36:23.881Z,6.98
2022-12-23T11:38:54.680Z,7.14
2022-12-23T11:41:27.167Z,7.07
2022-12-23T11:43:59.143Z,7.01
2022-12-23T11:46:30.836Z,7.05
2022-12-23T11:49:15.178Z,7.04
2022-12-23T11:51:44.383Z,7.06
2022-12-23T11:54:18.297Z,7.13
2022-12-23T11:56:51.044Z,7.09
2022-12-23T11:59:32.344Z,7.05
2022-12-23T12:02:03.031Z,7.10
2022-12-23T12:04:36.651Z,7.14
2022-12-23T12:07:06.646Z,7.11
2022-12-23T12:09:35.822Z,7.11
2022-12-23T12:12:07.231Z,7.22
2022-12-23T12:14:44.055Z,7.13
2022-12-23T12:17:19.692Z,7.12
2022-12-23T12:20:00.040Z,7.11
2022-12-23T12:22:35.319Z,7.18
2022-12-23T12:25:13.489Z,7.21
2022-12-23T12:27:44.581Z,7.14
2022-12-23T12:30:18.164Z,7.15
2022-12-23T12:32:57.573Z,7.07
2022-12-23T12:35:35.885Z,7.11
2022-12-23T12:38:14.186Z,7.14
2022-12-23T12:40:46.908Z,7.12
2022-12-23T12:43:25.274Z,7.09
2022-12-23T12:46:05.443Z,7.11
2022-12-23T12:48:41.817Z,7.05
2022-12-23T12:51:18.137Z,7.09
2022-12-23T12:54:04.443Z,7.04
2022-12-23T12:56:40.590Z,7.14
2022-12-23T12:59:17.042Z,7.22
2022-12-23T13:02:00.783Z,7.37
2022-12-23T13:04:50.055Z,7.27
2022-12-23T13:07:29.746Z,7.30
2022-12-23T13:10:04.653Z,7.35
2022-12-23T13:12:46.410Z,7.29
2022-12-23T13:15:22.883Z,7.23
2022-12-23T13:18:08.430Z,7.22
2022-12-23T13:20:43.933Z,7.12
2022-12-23T13:23:42.287Z,7.06
2022-12-23T13:26:19.603Z,7.02
2022-12-23T13:28:56.495Z,7.08
2022-12-23T13:31:37.388Z,7.04
2022-12-23T13:34:17.558Z,6.99
2022-12-23T13:36:56.538Z,7.01
2022-12-23T13:39:36.355Z,6.97
2022-12-23T13:42:06.609Z,6.90
2022-12-23T13:44:36.135Z,6.86
2022-12-23T13:47:15.131Z,6.83
2022-12-23T13:49:58.871Z,6.83
2022-12-23T13:52:43.853Z,6.81
2022-12-23T13:55:28.366Z,6.84
2022-12-23T13:58:04.598Z,6.93
2022-12-23T14:00:35.132Z,6.89
2022-12-23T14:03:19.500Z,6.86
2022-12-23T14:05:50.611Z,6.84
2022-12-23T14:08:26.180Z,6.87
2022-12-23T14:10:59.977Z,6.77
2022-12-23T14:13:31.277Z,6.78
2022-12-23T14:16:35.747Z,6.74
2022-12-23T14:19:25.526Z,6.83
2022-12-23T14:22:05.165Z,6.80
2022-12-23T14:25:05.080Z,6.86
2022-12-23T14:27:46.629Z,6.83
2022-12-23T14:30:19.230Z,6.80
2022-12-23T14:32:50.368Z,6.80
2022-12-23T14:35:26.442Z,6.78
2022-12-23T14:38:22.462Z,6.77
2022-12-23T14:41:19.238Z,6.76
2022-12-23T14:44:18.482Z,6.92
2022-12-23T14:46:57.711Z,6.93
2022-12-23T14:49:40.668Z,6.83
2022-12-23T14:52:48.220Z,6.79
2022-12-23T14:55:48.350Z,6.78
2022-12-23T14:58:51.851Z,6.74
2022-12-23T15:01:30.054Z,6.71
2022-12-23T15:04:01.723Z,6.70
2022-12-23T15:06:36.572Z,6.76
2022-12-23T15:09:07.407Z,6.71
2022-12-23T15:11:37.663Z,6.68
2022-12-23T15:14:12.455Z,6.68
2022-12-23T15:16:45.122Z,6.68
2022-12-23T15:19:22.986Z,6.67
2022-12-23T15:22:01.505Z,6.61
2022-12-23T15:24:36.191Z,6.53
2022-12-23T15:29:55.951Z,6.47
2022-12-23T15:32:27.562Z,6.45
2022-12-23T15:35:03.665Z,6.42
2022-12-23T15:37:33.076Z,6.38
2022-12-23T15:40:12.578Z,6.35
2022-12-23T15:42:48.873Z,6.33
2022-12-23T15:45:37.085Z,6.31
2022-12-23T15:48:23.267Z,6.26
2022-12-23T15:50:54.519Z,6.25
2022-12-23T15:53:23.867Z,6.26
2022-12-23T15:55:52.638Z,6.24
2022-12-23T15:58:24.728Z,6.22
2022-12-23T16:00:55.912Z,6.19
2022-12-23T16:03:34.596Z,6.20
2022-12-23T16:06:14.812Z,6.19
2022-12-23T16:08:44.213Z,6.18
2022-12-23T16:11:18.903Z,6.21
2022-12-23T16:13:59.331Z,6.21
2022-12-23T16:16:34.946Z,6.20
2022-12-23T16:19:04.869Z,6.21
2022-12-23T16:21:36.701Z,6.21
2022-12-23T16:24:10.183Z,6.20
2022-12-23T16:26:43.637Z,6.20
2022-12-23T16:29:13.201Z,6.23
2022-12-23T16:31:49.847Z,6.24
2022-12-23T16:34:22.472Z,6.25
2022-12-23T16:36:51.366Z,6.28
2022-12-23T16:39:22.821Z,6.26
2022-12-23T16:41:52.347Z,6.26
2022-12-23T16:44:21.420Z,6.26
2022-12-23T16:46:52.106Z,6.25
2022-12-23T16:49:29.604Z,6.25
2022-12-23T16:52:02.212Z,6.24
2022-12-23T16:54:30.874Z,6.24
2022-12-23T16:56:59.935Z,6.24
2022-12-23T16:59:28.937Z,6.22
2022-12-23T17:02:03.178Z,6.21
2022-12-23T17:04:33.714Z,6.20
2022-12-23T17:07:03.056Z,6.21
2022-12-23T17:09:31.713Z,6.21
2022-12-23T17:12:00.433Z,6.20
2022-12-23T17:14:31.074Z,6.20
2022-12-23T17:16:59.845Z,6.19
2022-12-23T17:19:29.623Z,6.20
2022-12-23T17:22:03.256Z,6.20
2022-12-23T17:24:31.747Z,6.19
2022-12-23T17:27:00.144Z,6.16
2022-12-23T17:29:28.869Z,6.15
2022-12-23T17:31:57.369Z,6.15
2022-12-23T17:34:26.207Z,6.15
2022-12-23T17:36:54.700Z,6.13
2022-12-23T17:39:24.540Z,6.11
2022-12-23T17:41:53.018Z,6.10
2022-12-23T17:44:21.367Z,6.10
2022-12-23T17:46:49.744Z,6.09
2022-12-23T17:49:18.140Z,6.11
2022-12-23T17:51:46.622Z,6.09
2022-12-23T17:54:23.350Z,6.09
2022-12-23T17:56:53.263Z,6.10
2022-12-23T17:59:21.911Z,6.09
2022-12-23T18:01:50.602Z,6.08
2022-12-23T18:04:19.315Z,6.06
2022-12-23T18:06:47.678Z,6.09
2022-12-23T18:09:16.709Z,6.07
2022-12-23T18:11:47.510Z,6.04
2022-12-23T18:14:22.464Z,6.00
2022-12-23T18:16:50.932Z,5.95
2022-12-23T18:19:21.558Z,5.92
2022-12-23T18:21:50.450Z,5.90
2022-12-23T18:24:19.025Z,5.89
2022-12-23T18:26:47.709Z,5.89
2022-12-23T18:29:17.519Z,5.87
2022-12-23T18:31:51.510Z,5.84
2022-12-23T18:34:21.029Z,5.86
2022-12-23T18:36:51.771Z,5.84
2022-12-23T18:39:21.136Z,5.83
2022-12-23T18:41:49.496Z,5.83
2022-12-23T18:44:21.596Z,5.83
2022-12-23T18:46:50.538Z,5.82
2022-12-23T18:49:19.057Z,5.81
2022-12-23T18:51:47.840Z,5.79
2022-12-23T18:54:16.916Z,5.79
2022-12-23T18:56:46.709Z,5.79
2022-12-23T18:59:20.261Z,5.79
2022-12-23T19:01:54.079Z,5.78
2022-12-23T19:04:22.541Z,5.76
2022-12-23T19:06:50.892Z,5.76
2022-12-23T19:09:21.761Z,5.75
2022-12-23T19:11:51.978Z,5.74
2022-12-23T19:14:20.361Z,5.73
2022-12-23T19:16:51.974Z,5.71
2022-12-23T19:19:22.945Z,5.71
2022-12-23T19:21:51.331Z,5.71
2022-12-23T19:24:19.750Z,5.70
2022-12-23T19:26:48.199Z,5.70
2022-12-23T19:29:16.955Z,5.71
2022-12-23T19:31:45.293Z,5.71
2022-12-23T19:34:15.625Z,5.70
2022-12-23T19:36:45.875Z,5.70
2022-12-23T19:39:16.654Z,5.70
2022-12-23T19:41:45.898Z,5.70
2022-12-23T19:44:14.442Z,5.69
2022-12-23T19:46:43.354Z,5.67
2022-12-23T19:49:19.167Z,5.66
2022-12-23T19:51:49.513Z,5.67
2022-12-23T19:54:18.215Z,5.66
2022-12-23T19:56:46.757Z,5.67
2022-12-23T19:59:15.078Z,5.66
2022-12-23T20:01:43.895Z,5.64
2022-12-23T20:04:12.875Z,5.67
2022-12-23T20:06:42.534Z,5.67
2022-12-23T20:09:14.062Z,5.68
2022-12-23T20:11:44.607Z,5.67
2022-12-23T20:14:14.955Z,5.64
2022-12-23T20:16:44.006Z,5.63
2022-12-23T20:19:12.673Z,5.63
2022-12-23T20:21:41.263Z,5.64
2022-12-23T20:24:11.875Z,5.65
2022-12-23T20:26:40.216Z,5.67
2022-12-23T20:29:09.179Z,5.70
2022-12-23T20:31:38.781Z,5.69
2022-12-23T20:34:09.508Z,5.67
2022-12-23T20:36:38.395Z,5.69
2022-12-23T20:39:06.967Z,5.68
2022-12-23T20:41:36.801Z,5.64
2022-12-23T20:46:54.818Z,5.57
2022-12-23T20:49:23.968Z,5.56
2022-12-23T20:51:52.295Z,5.54
2022-12-23T20:54:24.920Z,5.52
2022-12-23T20:56:57.797Z,5.50
2022-12-23T20:59:26.172Z,5.51
2022-12-23T21:01:54.814Z,5.48
2022-12-23T21:04:23.539Z,5.47
2022-12-23T21:06:51.985Z,5.47
2022-12-23T21:09:20.344Z,5.49
2022-12-23T21:11:49.371Z,5.49
2022-12-23T21:14:19.130Z,5.49
2022-12-23T21:16:47.703Z,5.47
2022-12-23T21:19:17.777Z,5.46
2022-12-23T21:21:46.962Z,5.48
2022-12-23T21:24:15.959Z,5.48
2022-12-23T21:26:49.036Z,5.49
2022-12-23T21:29:22.039Z,5.52
2022-12-23T21:31:50.560Z,5.53
2022-12-23T21:34:19.187Z,5.54
2022-12-23T21:36:47.750Z,5.51
2022-12-23T21:39:17.727Z,5.46
2022-12-23T21:41:46.114Z,5.45
2022-12-23T21:44:15.656Z,5.44
2022-12-23T21:46:45.438Z,5.41
2022-12-23T21:49:13.990Z,5.37
2022-12-23T21:51:42.455Z,5.37
2022-12-23T21:54:12.656Z,5.36
2022-12-23T21:56:42.136Z,5.36
2022-12-23T21:59:13.402Z,5.37
2022-12-23T22:01:42.382Z,5.35
2022-12-23T22:04:13.028Z,5.38
2022-12-23T22:06:44.454Z,5.36
2022-12-23T22:09:15.737Z,5.35
2022-12-23T22:11:44.958Z,5.32
2022-12-23T22:14:15.706Z,5.30
2022-12-23T22:16:44.187Z,5.36
2022-12-23T22:19:14.087Z,5.34
2022-12-23T22:21:42.866Z,5.34
2022-12-23T22:24:11.737Z,5.34
2022-12-23T22:26:40.938Z,5.34
2022-12-23T22:29:09.364Z,5.35
2022-12-23T22:31:43.064Z,5.36
2022-12-23T22:34:16.122Z,5.34
2022-12-23T22:36:44.827Z,5.31
2022-12-23T22:39:20.031Z,5.32
2022-12-23T22:41:49.672Z,5.31
2022-12-23T22:44:18.235Z,5.29
2022-12-23T22:46:46.888Z,5.30
2022-12-23T22:49:17.336Z,5.33
2022-12-23T22:51:46.580Z,5.36
2022-12-23T22:54:15.205Z,5.33
2022-12-23T22:56:43.812Z,5.32
2022-12-23T22:59:20.386Z,5.31
2022-12-23T23:01:49.594Z,5.24
2022-12-23T23:04:19.529Z,5.26
2022-12-23T23:06:47.919Z,5.26
2022-12-23T23:09:20.126Z,5.25
2022-12-23T23:11:48.631Z,5.23
2022-12-23T23:14:18.620Z,5.18
2022-12-23T23:16:47.129Z,5.18
2022-12-23T23:19:16.513Z,5.13
2022-12-23T23:21:46.237Z,5.12
2022-12-23T23:24:14.557Z,5.09
2022-12-23T23:26:42.926Z,5.09
2022-12-23T23:29:11.282Z,5.09
2022-12-23T23:31:42.834Z,5.07
2022-12-23T23:34:12.456Z,5.05
2022-12-23T23:36:41.010Z,5.04
2022-12-23T23:39:13.067Z,5.04
2022-12-23T23:41:41.987Z,5.07
2022-12-23T23:44:10.664Z,5.06
2022-12-23T23:46:39.286Z,5.07
2022-12-23T23:49:07.642Z,5.07
2022-12-23T23:51:35.985Z,5.08
2022-12-23T23:54:04.491Z,5.08
2022-12-23T23:56:38.733Z,5.06
2022-12-23T23:59:07.442Z,5.04
